Time;durP1;ratioP1;P1;durP2;ratioP2;P2;SDS_P1;SDS_P2;PMS_P1;PMS_P2;Temp;Humidity;BMP_temperature;BMP_pressure;BME280_temperature;BME280_humidity;BME280_pressure;Samples;Min_cycle;Max_cycle;Signal;HPM_P1;HPM_P2
2023/02/12 00:05:22;;;;;;;;;;;;;;;;;;;;;
2023/02/12 00:08:15;;;;;;;;;;;;;;;;;;5055369;28;20414;-86
2023/02/12 00:10:43;;;;;;;;;;;;;;;;;;5037660;28;20315;-87
2023/02/12 00:16:36;;;;;;;;;;;;;;;;;;5034609;28;19921;-86
2023/02/12 00:19:20;;;;;;;;;;;;;;;;;;5049257;28;19954;-86
2023/02/12 00:25:13;;;;;;;;;;;;;;;;;;5026627;28;19920;-86
2023/02/12 00:27:42;;;;;;;;;;;;;;;;;;5048668;28;19924;-89
2023/02/12 00:55:16;;;;;;;;;;;;;;;;;;;;;
2023/02/12 01:30:10;;;;;;;;;;;;;;;;;;4790411;29;19932;-86
2023/02/12 01:38:37;;;;;;;;;;;;;;;;;;4971984;28;20015;-85
2023/02/12 01:47:29;;;;;;;;;;;;;;;;;;5072772;27;19928;-85
2023/02/12 01:50:14;;;;;;;;;;;;;;;;;;;;;
2023/02/12 01:52:46;;;;;;;;;;;;;;;;;;5077631;28;20029;-87
2023/02/12 01:55:18;;;;;;;;;;;;;;;;;;5071988;27;19930;-86
2023/02/12 01:57:59;;;;;;;;;;;;;;;;;;5073749;27;20054;-86
2023/02/12 02:00:37;;;;;;;;;;;;;;;;;;5077489;27;20386;-86
2023/02/12 02:10:44;;;;;;;;;;;;;;;;;;;;;
2023/02/12 02:33:37;;;;;;;;;;;;;;;;;;5105773;27;20404;-84
2023/02/12 02:36:04;;;;;;;;;;;;;;;;;;5074210;27;19928;-84
2023/02/12 02:38:29;;;;;;;;;;;;;;;;;;5079886;28;19943;-83
2023/02/12 02:40:55;;;;;;;;;;;;;;;;;;5084771;27;19923;-84
2023/02/12 02:43:21;;;;;;;;;;;;;;;;;;5077581;28;19930;-84
2023/02/12 02:45:47;;;;;;;;;;;;;;;;;;5064454;22;20433;-82
2023/02/12 02:48:13;;;;;;;;;;;;;;;;;;5047376;28;19929;-81
2023/02/12 02:50:39;;;;;;;;;;;;;;;;;;5031794;28;20348;-82
2023/02/12 02:53:05;;;;;;;;;;;;;;;;;;5041726;28;19943;-81
2023/02/12 02:55:31;;;;;;;;;;;;;;;;;;5049929;28;19925;-82
2023/02/12 02:57:57;;;;;;;;;;;;;;;;;;5023225;28;19920;-82
2023/02/12 03:00:23;;;;;;;;;;;;;;;;;;5036323;28;20559;-83
2023/02/12 03:02:49;;;;;;;;;;;;;;;;;;5034886;28;19921;-83
2023/02/12 03:05:15;;;;;;;;;;;;;;;;;;5025362;28;20377;-83
2023/02/12 03:07:41;;;;;;;;;;;;;;;;;;5031128;28;20190;-83
2023/02/12 03:10:07;;;;;;;;;;;;;;;;;;5027256;28;19920;-83
2023/02/12 03:12:32;;;;;;;;;;;;;;;;;;5047920;28;19920;-83
2023/02/12 03:14:58;;;;;;;;;;;;;;;;;;5053405;28;20417;-84
2023/02/12 03:17:24;;;;;;;;;;;;;;;;;;5032448;28;19928;-84
2023/02/12 03:19:50;;;;;;;;;;;;;;;;;;5049227;28;19928;-83
2023/02/12 03:22:16;;;;;;;;;;;;;;;;;;5045501;28;20533;-84
2023/02/12 03:24:42;;;;;;;;;;;;;;;;;;5032224;28;19925;-83
2023/02/12 03:27:08;;;;;;;;;;;;;;;;;;5050574;28;19990;-80
2023/02/12 03:29:34;;;;;;;;;;;;;;;;;;5026064;28;19929;-81
2023/02/12 03:32:00;;;;;;;;;;;;;;;;;;5047406;28;20417;-83
2023/02/12 03:34:26;;;;;;;;;;;;;;;;;;5034456;28;19961;-82
2023/02/12 03:36:52;;;;;;;;;;;;;;;;;;5048256;28;19944;-83
2023/02/12 03:39:18;;;;;;;;;;;;;;;;;;5021693;28;19920;-81
2023/02/12 03:41:44;;;;;;;;;;;;;;;;;;5046854;28;19928;-82
2023/02/12 03:44:10;;;;;;;;;;;;;;;;;;5047285;28;19935;-83
2023/02/12 03:46:35;;;;;;;;;;;;;;;;;;5031815;28;19921;-83
2023/02/12 03:49:01;;;;;;;;;;;;;;;;;;5049380;28;20299;-82
2023/02/12 03:51:27;;;;;;;;;;;;;;;;;;5032955;28;19921;-82
2023/02/12 03:53:53;;;;;;;;;;;;;;;;;;5045160;28;19926;-82
2023/02/12 03:56:19;;;;;;;;;;;;;;;;;;5033135;28;19971;-83
2023/02/12 03:58:45;;;;;;;;;;;;;;;;;;5048976;28;20015;-82
2023/02/12 04:01:11;;;;;;;;;;;;;;;;;;5033838;28;20672;-82
2023/02/12 04:03:37;;;;;;;;;;;;;;;;;;5035348;28;19920;-83
2023/02/12 04:06:03;;;;;;;;;;;;;;;;;;5045069;28;20054;-83
2023/02/12 04:08:29;;;;;;;;;;;;;;;;;;5050433;28;20266;-83
2023/02/12 04:10:55;;;;;;;;;;;;;;;;;;5052420;28;19928;-82
2023/02/12 04:13:21;;;;;;;;;;;;;;;;;;5029281;28;19928;-83
2023/02/12 04:15:47;;;;;;;;;;;;;;;;;;5033037;28;19924;-83
2023/02/12 04:18:13;;;;;;;;;;;;;;;;;;5030170;28;19920;-82
2023/02/12 04:20:39;;;;;;;;;;;;;;;;;;5050690;28;20027;-82
2023/02/12 04:23:04;;;;;;;;;;;;;;;;;;5032322;28;19928;-82
2023/02/12 04:25:30;;;;;;;;;;;;;;;;;;5032472;28;20386;-83
2023/02/12 04:27:56;;;;;;;;;;;;;;;;;;5049805;28;20148;-82
2023/02/12 04:30:22;;;;;;;;;;;;;;;;;;5048218;28;19931;-83
2023/02/12 04:32:48;;;;;;;;;;;;;;;;;;5027406;28;19921;-81
2023/02/12 04:35:14;;;;;;;;;;;;;;;;;;5045597;28;19987;-83
2023/02/12 04:37:40;;;;;;;;;;;;;;;;;;5036984;28;19995;-83
2023/02/12 04:40:06;;;;;;;;;;;;;;;;;;5056210;28;19924;-81
2023/02/12 04:42:32;;;;;;;;;;;;;;;;;;5032832;28;20440;-84
2023/02/12 04:44:58;;;;;;;;;;;;;;;;;;5048162;28;19927;-84
2023/02/12 04:47:23;;;;;;;;;;;;;;;;;;5044002;28;19928;-85
2023/02/12 04:49:49;;;;;;;;;;;;;;;;;;5049409;28;19966;-82
2023/02/12 04:52:15;;;;;;;;;;;;;;;;;;5050013;28;20306;-83
2023/02/12 04:54:41;;;;;;;;;;;;;;;;;;5042906;28;20477;-84
2023/02/12 04:57:07;;;;;;;;;;;;;;;;;;5020167;28;20086;-83
2023/02/12 04:59:33;;;;;;;;;;;;;;;;;;5008791;28;19928;-83
2023/02/12 05:01:59;;;;;;;;;;;;;;;;;;5010373;28;20373;-83
2023/02/12 05:04:25;;;;;;;;;;;;;;;;;;5007752;28;19921;-84
2023/02/12 05:06:51;;;;;;;;;;;;;;;;;;5012688;28;19921;-82
2023/02/12 05:09:17;;;;;;;;;;;;;;;;;;5020467;28;20437;-83
2023/02/12 05:11:43;;;;;;;;;;;;;;;;;;5026350;28;19928;-84
2023/02/12 05:14:09;;;;;;;;;;;;;;;;;;5027027;28;19936;-83
2023/02/12 05:16:35;;;;;;;;;;;;;;;;;;5019560;28;21620;-84
2023/02/12 05:19:00;;;;;;;;;;;;;;;;;;5013258;28;19924;-84
2023/02/12 05:21:26;;;;;;;;;;;;;;;;;;5028900;28;20422;-83
2023/02/12 05:23:52;;;;;;;;;;;;;;;;;;5037970;28;19929;-83
2023/02/12 05:26:18;;;;;;;;;;;;;;;;;;5014572;28;20007;-83
2023/02/12 05:28:44;;;;;;;;;;;;;;;;;;5045062;28;20015;-82
2023/02/12 05:31:10;;;;;;;;;;;;;;;;;;5040622;28;20421;-82
2023/02/12 05:33:36;;;;;;;;;;;;;;;;;;5047521;28;20816;-84
2023/02/12 05:36:02;;;;;;;;;;;;;;;;;;5035322;28;19933;-82
2023/02/12 05:38:28;;;;;;;;;;;;;;;;;;5041794;28;19924;-84
2023/02/12 05:40:54;;;;;;;;;;;;;;;;;;5033342;28;19971;-83
2023/02/12 05:43:20;;;;;;;;;;;;;;;;;;5028177;28;20017;-83
2023/02/12 05:45:46;;;;;;;;;;;;;;;;;;5054368;28;19928;-84
2023/02/12 05:48:11;;;;;;;;;;;;;;;;;;5038302;28;19924;-83
2023/02/12 05:50:37;;;;;;;;;;;;;;;;;;5041325;28;19970;-83
2023/02/12 05:53:03;;;;;;;;;;;;;;;;;;5044281;28;20001;-84
2023/02/12 05:55:30;;;;;;;;;;;;;;;;;;5041546;28;20022;-83
2023/02/12 05:57:55;;;;;;;;;;;;;;;;;;5025325;28;19928;-83
2023/02/12 06:00:21;;;;;;;;;;;;;;;;;;5055334;28;20009;-83
2023/02/12 06:02:47;;;;;;;;;;;;;;;;;;5042377;28;19966;-84
2023/02/12 06:05:13;;;;;;;;;;;;;;;;;;5044391;28;19934;-83
2023/02/12 06:07:39;;;;;;;;;;;;;;;;;;5067593;28;20364;-83
2023/02/12 06:10:05;;;;;;;;;;;;;;;;;;5042819;28;19962;-83
2023/02/12 06:12:31;;;;;;;;;;;;;;;;;;5052491;28;19942;-83
2023/02/12 06:14:57;;;;;;;;;;;;;;;;;;5026270;28;19935;-82
2023/02/12 06:17:23;;;;;;;;;;;;;;;;;;5049533;28;19921;-84
2023/02/12 06:19:49;;;;;;;;;;;;;;;;;;5054581;28;20446;-82
2023/02/12 06:22:15;;;;;;;;;;;;;;;;;;5058542;28;19959;-82
2023/02/12 06:24:41;;;;;;;;;;;;;;;;;;5042488;28;19927;-83
2023/02/12 06:27:07;;;;;;;;;;;;;;;;;;5056274;28;19924;-83
2023/02/12 06:29:32;;;;;;;;;;;;;;;;;;5050444;28;19928;-83
2023/02/12 06:31:58;;;;;;;;;;;;;;;;;;5056030;28;20268;-82
2023/02/12 06:34:24;;;;;;;;;;;;;;;;;;5052914;28;19949;-83
2023/02/12 06:36:50;;;;;;;;;;;;;;;;;;5036261;28;20390;-83
2023/02/12 06:39:16;;;;;;;;;;;;;;;;;;5058342;28;19928;-83
2023/02/12 06:41:42;;;;;;;;;;;;;;;;;;5038532;28;19947;-82
2023/02/12 06:44:08;;;;;;;;;;;;;;;;;;5039835;28;19946;-83
2023/02/12 06:46:34;;;;;;;;;;;;;;;;;;5049557;28;20353;-86
2023/02/12 06:49:00;;;;;;;;;;;;;;;;;;5023512;28;19977;-85
2023/02/12 06:51:26;;;;;;;;;;;;;;;;;;5052451;28;20303;-85
2023/02/12 06:53:52;;;;;;;;;;;;;;;;;;5036303;28;19974;-83
2023/02/12 06:56:18;;;;;;;;;;;;;;;;;;5043987;28;19924;-82
2023/02/12 06:58:44;;;;;;;;;;;;;;;;;;5017392;28;20636;-85
2023/02/12 07:01:12;;;;;;;;;;;;;;;;;;5020728;28;19921;-84
2023/02/12 07:03:38;;;;;;;;;;;;;;;;;;5042288;28;19920;-84
2023/02/12 07:06:04;;;;;;;;;;;;;;;;;;5043510;28;19928;-83
2023/02/12 07:08:30;;;;;;;;;;;;;;;;;;5019214;28;19932;-84
2023/02/12 07:10:56;;;;;;;;;;;;;;;;;;5019186;28;20623;-85
2023/02/12 07:13:21;;;;;;;;;;;;;;;;;;5019230;28;19920;-84
2023/02/12 07:15:47;;;;;;;;;;;;;;;;;;5046896;28;19935;-83
2023/02/12 07:18:13;;;;;;;;;;;;;;;;;;5042635;28;19924;-85
2023/02/12 07:20:39;;;;;;;;;;;;;;;;;;5042519;28;20003;-84
2023/02/12 07:23:05;;;;;;;;;;;;;;;;;;5039927;28;20344;-82
2023/02/12 07:25:31;;;;;;;;;;;;;;;;;;5033057;28;20394;-83
2023/02/12 07:27:57;;;;;;;;;;;;;;;;;;5043168;28;20437;-82
2023/02/12 07:30:23;;;;;;;;;;;;;;;;;;5024455;28;19961;-84
2023/02/12 07:32:49;;;;;;;;;;;;;;;;;;5014412;28;19928;-83
2023/02/12 07:35:15;;;;;;;;;;;;;;;;;;5033825;28;19920;-83
2023/02/12 07:37:41;;;;;;;;;;;;;;;;;;5020988;28;19920;-82
2023/02/12 07:40:06;;;;;;;;;;;;;;;;;;5049498;28;20260;-83
2023/02/12 07:42:32;;;;;;;;;;;;;;;;;;5017238;28;19928;-84
2023/02/12 07:44:58;;;;;;;;;;;;;;;;;;5046609;28;19920;-84
2023/02/12 07:47:24;;;;;;;;;;;;;;;;;;5046714;28;19928;-83
2023/02/12 07:49:50;;;;;;;;;;;;;;;;;;5029959;28;19920;-84
2023/02/12 07:52:16;;;;;;;;;;;;;;;;;;5042344;28;20309;-83
2023/02/12 07:54:42;;;;;;;;;;;;;;;;;;5045310;28;19928;-83
2023/02/12 07:57:08;;;;;;;;;;;;;;;;;;5041574;28;19928;-83
2023/02/12 07:59:34;;;;;;;;;;;;;;;;;;5022138;28;20502;-82
2023/02/12 08:02:00;;;;;;;;;;;;;;;;;;5020658;28;20043;-84
2023/02/12 08:04:26;;;;;;;;;;;;;;;;;;5043248;28;19935;-84
2023/02/12 08:06:52;;;;;;;;;;;;;;;;;;5028539;28;19929;-83
2023/02/12 08:09:18;;;;;;;;;;;;;;;;;;5020442;28;19925;-84
2023/02/12 08:11:44;;;;;;;;;;;;;;;;;;5026955;28;19928;-84
2023/02/12 08:14:10;;;;;;;;;;;;;;;;;;5048033;28;19931;-83
2023/02/12 08:16:36;;;;;;;;;;;;;;;;;;5046676;28;19924;-84
2023/02/12 08:19:02;;;;;;;;;;;;;;;;;;5048556;28;19924;-83
2023/02/12 08:21:28;;;;;;;;;;;;;;;;;;5032608;28;20379;-83
2023/02/12 08:23:54;;;;;;;;;;;;;;;;;;5029034;28;19920;-83
2023/02/12 08:26:20;;;;;;;;;;;;;;;;;;5046362;28;19956;-83
2023/02/12 08:28:46;;;;;;;;;;;;;;;;;;5036358;28;19970;-84
2023/02/12 08:31:12;;;;;;;;;;;;;;;;;;5032588;28;19921;-82
2023/02/12 08:33:38;;;;;;;;;;;;;;;;;;5050409;28;19932;-83
2023/02/12 08:36:04;;;;;;;;;;;;;;;;;;5034772;28;19928;-83
2023/02/12 08:38:30;;;;;;;;;;;;;;;;;;5026065;28;20325;-83
2023/02/12 08:40:56;;;;;;;;;;;;;;;;;;5049046;28;19929;-83
2023/02/12 08:43:22;;;;;;;;;;;;;;;;;;5049242;28;19927;-84
2023/02/12 08:45:48;;;;;;;;;;;;;;;;;;5073611;22;20383;-73
2023/02/12 08:48:14;;;;;;;;;;;;;;;;;;5069963;28;20053;-72
2023/02/12 08:50:40;;;;;;;;;;;;;;;;;;5074087;28;19977;-73
2023/02/12 08:53:06;;;;;;;;;;;;;;;;;;5073137;28;20095;-72
2023/02/12 08:55:32;;;;;;;;;;;;;;;;;;5047153;28;19932;-72
2023/02/12 08:57:58;;;;;;;;;;;;;;;;;;5059142;28;20400;-73
2023/02/12 09:00:24;;;;;;;;;;;;;;;;;;5059092;28;20422;-72
2023/02/12 09:02:50;;;;;;;;;;;;;;;;;;5049384;28;19931;-73
2023/02/12 09:05:16;;;;;;;;;;;;;;;;;;5053871;28;19982;-72
2023/02/12 09:07:42;;;;;;;;;;;;;;;;;;5052469;28;19943;-72
2023/02/12 09:10:07;;;;;;;;;;;;;;;;;;5034162;28;19930;-72
2023/02/12 09:12:33;;;;;;;;;;;;;;;;;;5053328;28;19935;-73
2023/02/12 09:14:59;;;;;;;;;;;;;;;;;;5045763;28;20221;-72
2023/02/12 09:17:26;;;;;;;;;;;;;;;;;;5052251;28;19951;-71
2023/02/12 09:19:52;;;;;;;;;;;;;;;;;;5050442;28;19936;-72
2023/02/12 09:22:18;;;;;;;;;;;;;;;;;;5058093;28;19920;-73
2023/02/12 09:24:44;;;;;;;;;;;;;;;;;;5052812;28;19934;-72
2023/02/12 09:27:10;;;;;;;;;;;;;;;;;;5055157;28;19946;-72
2023/02/12 09:29:35;;;;;;;;;;;;;;;;;;5055020;28;20387;-72
2023/02/12 09:32:04;;;;;;;;;;;;;;;;;;5052914;28;19920;-73
2023/02/12 09:34:30;;;;;;;;;;;;;;;;;;5055581;28;20396;-72
2023/02/12 09:36:56;;;;;;;;;;;;;;;;;;5058800;28;20429;-72
2023/02/12 09:39:22;;;;;;;;;;;;;;;;;;5049278;28;19928;-73
2023/02/12 09:41:47;;;;;;;;;;;;;;;;;;5039614;28;19928;-72
2023/02/12 09:44:13;;;;;;;;;;;;;;;;;;5039581;28;19923;-71
2023/02/12 09:46:39;;;;;;;;;;;;;;;;;;5028196;28;19933;-75
2023/02/12 09:49:05;;;;;;;;;;;;;;;;;;5038269;28;19940;-75
2023/02/12 09:51:31;;;;;;;;;;;;;;;;;;5045244;28;19927;-73
2023/02/12 09:53:57;;;;;;;;;;;;;;;;;;5033185;28;20112;-73
2023/02/12 09:56:23;;;;;;;;;;;;;;;;;;5038174;28;20590;-74
2023/02/12 09:58:49;;;;;;;;;;;;;;;;;;5039166;28;19935;-72
2023/02/12 10:01:15;;;;;;;;;;;;;;;;;;5034220;28;19990;-73
2023/02/12 10:03:41;;;;;;;;;;;;;;;;;;5033609;28;19967;-71
2023/02/12 10:06:07;;;;;;;;;;;;;;;;;;5036000;28;20010;-72
2023/02/12 10:08:33;;;;;;;;;;;;;;;;;;5041320;28;19928;-72
2023/02/12 10:10:59;;;;;;;;;;;;;;;;;;5043502;28;19935;-75
2023/02/12 10:13:24;;;;;;;;;;;;;;;;;;5038459;28;20027;-74
2023/02/12 10:15:50;;;;;;;;;;;;;;;;;;5036127;28;21819;-73
2023/02/12 10:18:16;;;;;;;;;;;;;;;;;;5048220;28;20374;-71
2023/02/12 10:20:42;;;;;;;;;;;;;;;;;;5051118;28;19926;-75
2023/02/12 10:23:08;;;;;;;;;;;;;;;;;;5040945;28;20386;-75
2023/02/12 10:25:34;;;;;;;;;;;;;;;;;;5035591;28;19931;-74
2023/02/12 10:28:00;;;;;;;;;;;;;;;;;;5038469;28;20243;-74
2023/02/12 10:30:26;;;;;;;;;;;;;;;;;;5029193;28;19967;-74
2023/02/12 10:32:52;;;;;;;;;;;;;;;;;;5042496;28;20018;-75
2023/02/12 10:35:18;;;;;;;;;;;;;;;;;;5042690;28;19934;-73
2023/02/12 10:37:44;;;;;;;;;;;;;;;;;;5048411;28;19959;-74
2023/02/12 10:40:10;;;;;;;;;;;;;;;;;;5030555;28;20048;-74
2023/02/12 10:42:36;;;;;;;;;;;;;;;;;;5050521;28;19928;-74
2023/02/12 10:45:02;;;;;;;;;;;;;;;;;;5051942;28;19978;-72
2023/02/12 10:47:28;;;;;;;;;;;;;;;;;;5045616;28;19928;-75
2023/02/12 10:49:54;;;;;;;;;;;;;;;;;;5040535;28;19989;-75
2023/02/12 10:52:20;;;;;;;;;;;;;;;;;;5047514;28;20444;-74
2023/02/12 10:54:47;;;;;;;;;;;;;;;;;;5025148;28;19928;-73
2023/02/12 10:57:13;;;;;;;;;;;;;;;;;;5027679;28;20375;-74
2023/02/12 10:59:39;;;;;;;;;;;;;;;;;;5042881;28;19969;-75
2023/02/12 11:02:05;;;;;;;;;;;;;;;;;;5046804;28;19935;-73
2023/02/12 11:04:31;;;;;;;;;;;;;;;;;;5025963;28;19960;-75
2023/02/12 11:06:57;;;;;;;;;;;;;;;;;;5039606;28;19975;-75
2023/02/12 11:09:23;;;;;;;;;;;;;;;;;;5044703;28;19936;-75
2023/02/12 11:11:49;;;;;;;;;;;;;;;;;;5042375;28;20127;-73
2023/02/12 11:14:15;;;;;;;;;;;;;;;;;;5037076;28;19930;-74
2023/02/12 11:16:41;;;;;;;;;;;;;;;;;;5031544;28;20406;-74
2023/02/12 11:19:07;;;;;;;;;;;;;;;;;;5025100;28;19930;-74
2023/02/12 11:21:33;;;;;;;;;;;;;;;;;;5027396;28;19920;-74
2023/02/12 11:23:59;;;;;;;;;;;;;;;;;;5023617;28;20339;-75
2023/02/12 11:26:25;;;;;;;;;;;;;;;;;;5046954;28;19929;-74
2023/02/12 11:28:51;;;;;;;;;;;;;;;;;;5035967;28;19925;-73
2023/02/12 11:31:17;;;;;;;;;;;;;;;;;;5043389;28;19921;-74
2023/02/12 11:33:44;;;;;;;;;;;;;;;;;;5049674;28;20338;-76
2023/02/12 11:36:10;;;;;;;;;;;;;;;;;;5042895;28;19966;-74
2023/02/12 11:38:36;;;;;;;;;;;;;;;;;;5038745;28;20472;-74
2023/02/12 11:41:02;;;;;;;;;;;;;;;;;;5036268;28;19942;-74
2023/02/12 11:43:29;;;;;;;;;;;;;;;;;;5033304;28;19939;-74
2023/02/12 11:45:55;;;;;;;;;;;;;;;;;;5041239;28;20014;-74
2023/02/12 11:48:21;;;;;;;;;;;;;;;;;;5046180;28;19928;-74
2023/02/12 11:50:47;;;;;;;;;;;;;;;;;;5051163;28;20335;-73
2023/02/12 11:53:13;;;;;;;;;;;;;;;;;;5039624;28;19924;-74
2023/02/12 11:55:39;;;;;;;;;;;;;;;;;;5044853;28;19923;-73
2023/02/12 11:58:05;;;;;;;;;;;;;;;;;;5043199;28;19995;-73
2023/02/12 12:00:31;;;;;;;;;;;;;;;;;;5029938;28;19982;-74
2023/02/12 12:02:57;;;;;;;;;;;;;;;;;;5050524;28;19934;-74
2023/02/12 12:05:23;;;;;;;;;;;;;;;;;;5052598;28;20353;-74
2023/02/12 12:07:49;;;;;;;;;;;;;;;;;;5052197;28;19924;-74
2023/02/12 12:10:15;;;;;;;;;;;;;;;;;;5050930;28;19935;-73
2023/02/12 12:12:41;;;;;;;;;;;;;;;;;;5051808;28;19934;-74
2023/02/12 12:20:36;;;;;;;;;;;;;;;;;;5055368;28;20015;-74
2023/02/12 12:23:02;;;;;;;;;;;;;;;;;;5054627;28;20011;-74
2023/02/12 12:25:28;;;;;;;;;;;;;;;;;;5053382;28;19982;-74
2023/02/12 12:28:05;;;;;;;;;;;;;;;;;;5054052;28;19959;-74
2023/02/12 12:30:31;;;;;;;;;;;;;;;;;;5047444;28;20959;-74
2023/02/12 12:32:57;;;;;;;;;;;;;;;;;;5048201;28;19953;-74
2023/02/12 12:35:23;;;;;;;;;;;;;;;;;;5042976;28;20294;-74
2023/02/12 12:37:49;;;;;;;;;;;;;;;;;;5046954;28;19920;-74
2023/02/12 12:40:15;;;;;;;;;;;;;;;;;;5045101;28;19927;-74
2023/02/12 12:42:40;;;;;;;;;;;;;;;;;;5049407;28;19936;-74
2023/02/12 12:45:07;;;;;;;;;;;;;;;;;;5053187;28;20382;-71
2023/02/12 12:47:33;;;;;;;;;;;;;;;;;;5063930;28;20014;-72
2023/02/12 12:49:59;;;;;;;;;;;;;;;;;;5061966;28;20066;-71
2023/02/12 12:52:25;;;;;;;;;;;;;;;;;;5067300;28;19953;-72
2023/02/12 12:54:51;;;;;;;;;;;;;;;;;;5060829;28;20445;-71
2023/02/12 12:57:16;;;;;;;;;;;;;;;;;;5072306;28;19931;-72
2023/02/12 12:59:42;;;;;;;;;;;;;;;;;;5082652;28;19920;-72
2023/02/12 13:02:08;;;;;;;;;;;;;;;;;;5063444;28;20219;-72
2023/02/12 13:04:34;;;;;;;;;;;;;;;;;;5061299;28;19928;-70
2023/02/12 13:07:00;;;;;;;;;;;;;;;;;;5049508;28;20275;-72
2023/02/12 13:09:26;;;;;;;;;;;;;;;;;;5054009;28;19941;-71
2023/02/12 13:11:52;;;;;;;;;;;;;;;;;;5055070;28;19998;-74
2023/02/12 13:14:18;;;;;;;;;;;;;;;;;;5061446;28;20316;-73
2023/02/12 13:16:44;;;;;;;;;;;;;;;;;;5054817;28;20762;-73
2023/02/12 13:19:10;;;;;;;;;;;;;;;;;;5056647;28;19925;-74
2023/02/12 13:21:36;;;;;;;;;;;;;;;;;;5048241;28;19928;-73
2023/02/12 13:24:02;;;;;;;;;;;;;;;;;;5049937;28;19953;-73
2023/02/12 13:26:29;;;;;;;;;;;;;;;;;;5050210;28;19924;-75
2023/02/12 13:28:55;;;;;;;;;;;;;;;;;;5041546;28;19935;-73
2023/02/12 13:31:21;;;;;;;;;;;;;;;;;;5055715;28;19920;-73
2023/02/12 13:33:47;;;;;;;;;;;;;;;;;;5059059;28;19924;-75
2023/02/12 13:36:13;;;;;;;;;;;;;;;;;;5053023;28;19935;-72
2023/02/12 13:38:39;;;;;;;;;;;;;;;;;;5054539;28;20332;-72
2023/02/12 13:41:05;;;;;;;;;;;;;;;;;;5049071;28;19920;-75
2023/02/12 13:43:31;;;;;;;;;;;;;;;;;;5065474;28;20384;-72
2023/02/12 13:45:57;;;;;;;;;;;;;;;;;;5062941;28;20409;-73
2023/02/12 13:48:22;;;;;;;;;;;;;;;;;;5061908;28;19920;-73
2023/02/12 13:50:48;;;;;;;;;;;;;;;;;;5060896;28;19924;-73
2023/02/12 13:53:14;;;;;;;;;;;;;;;;;;5062750;28;19924;-73
2023/02/12 13:55:40;;;;;;;;;;;;;;;;;;5064603;28;19928;-73
2023/02/12 13:58:06;;;;;;;;;;;;;;;;;;5057076;28;19997;-73
2023/02/12 14:00:32;;;;;;;;;;;;;;;;;;5042096;28;19965;-73
2023/02/12 14:02:58;;;;;;;;;;;;;;;;;;5053981;28;19928;-73
2023/02/12 14:05:24;;;;;;;;;;;;;;;;;;5049403;28;19972;-72
2023/02/12 14:07:50;;;;;;;;;;;;;;;;;;5046687;28;20459;-73
2023/02/12 14:10:16;;;;;;;;;;;;;;;;;;5056207;28;20423;-72
2023/02/12 14:12:42;;;;;;;;;;;;;;;;;;5047415;28;19928;-72
2023/02/12 14:15:08;;;;;;;;;;;;;;;;;;5060664;28;20374;-72
2023/02/12 14:17:34;;;;;;;;;;;;;;;;;;5058188;28;19924;-72
2023/02/12 14:20:00;;;;;;;;;;;;;;;;;;5055515;28;19931;-73
2023/02/12 14:22:25;;;;;;;;;;;;;;;;;;5046716;28;20003;-74
2023/02/12 14:24:51;;;;;;;;;;;;;;;;;;5062048;28;20438;-73
2023/02/12 14:27:18;;;;;;;;;;;;;;;;;;5060159;28;19932;-72
2023/02/12 14:29:45;;;;;;;;;;;;;;;;;;5042686;28;20217;-73
2023/02/12 14:32:11;;;;;;;;;;;;;;;;;;5058700;28;19924;-73
2023/02/12 14:34:37;;;;;;;;;;;;;;;;;;5057278;28;20645;-73
2023/02/12 14:37:03;;;;;;;;;;;;;;;;;;5060187;28;19942;-73
2023/02/12 14:39:29;;;;;;;;;;;;;;;;;;5056186;28;19966;-73
2023/02/12 14:41:56;;;;;;;;;;;;;;;;;;5059545;28;19966;-73
2023/02/12 14:44:22;;;;;;;;;;;;;;;;;;5056057;28;19924;-73
2023/02/12 14:46:48;;;;;;;;;;;;;;;;;;5075388;22;19933;-82
2023/02/12 14:49:13;;;;;;;;;;;;;;;;;;5015791;28;19925;-84
2023/02/12 14:51:39;;;;;;;;;;;;;;;;;;5054576;28;19921;-83
2023/02/12 14:54:05;;;;;;;;;;;;;;;;;;5022710;28;19929;-83
2023/02/12 14:56:31;;;;;;;;;;;;;;;;;;5026484;28;20106;-83
2023/02/12 14:58:57;;;;;;;;;;;;;;;;;;5032201;28;20679;-83
2023/02/12 15:01:23;;;;;;;;;;;;;;;;;;5037654;28;19929;-83
2023/02/12 15:03:49;;;;;;;;;;;;;;;;;;5038872;28;19921;-84
2023/02/12 15:06:15;;;;;;;;;;;;;;;;;;5024507;28;20138;-83
2023/02/12 15:08:41;;;;;;;;;;;;;;;;;;5024154;28;19925;-84
2023/02/12 15:11:07;;;;;;;;;;;;;;;;;;5038779;28;19925;-83
2023/02/12 15:13:33;;;;;;;;;;;;;;;;;;5038822;28;20395;-83
2023/02/12 15:15:59;;;;;;;;;;;;;;;;;;5040017;28;19920;-83
2023/02/12 15:18:26;;;;;;;;;;;;;;;;;;5018808;28;19921;-84
2023/02/12 15:20:52;;;;;;;;;;;;;;;;;;5033469;28;19925;-85
2023/02/12 15:23:18;;;;;;;;;;;;;;;;;;5030227;28;19942;-85
2023/02/12 15:25:44;;;;;;;;;;;;;;;;;;5032814;28;19936;-82
2023/02/12 15:28:10;;;;;;;;;;;;;;;;;;5034095;28;19921;-83
2023/02/12 15:30:35;;;;;;;;;;;;;;;;;;5030385;28;19921;-84
2023/02/12 15:33:01;;;;;;;;;;;;;;;;;;5046489;28;19948;-85
2023/02/12 15:35:27;;;;;;;;;;;;;;;;;;5020627;28;20177;-84
2023/02/12 15:37:53;;;;;;;;;;;;;;;;;;5032418;28;19968;-84
2023/02/12 15:40:19;;;;;;;;;;;;;;;;;;5032122;28;20530;-84
2023/02/12 15:42:45;;;;;;;;;;;;;;;;;;5034672;28;20299;-84
2023/02/12 15:45:11;;;;;;;;;;;;;;;;;;5010869;28;19935;-84
2023/02/12 15:47:37;;;;;;;;;;;;;;;;;;5009236;28;20011;-84
2023/02/12 15:50:03;;;;;;;;;;;;;;;;;;5027120;28;19952;-82
2023/02/12 15:52:33;;;;;;;;;;;;;;;;;;5027464;28;20284;-84
2023/02/12 15:54:59;;;;;;;;;;;;;;;;;;5033680;28;20816;-83
2023/02/12 15:57:25;;;;;;;;;;;;;;;;;;5036848;28;19971;-84
2023/02/12 15:59:51;;;;;;;;;;;;;;;;;;5035011;28;19921;-84
2023/02/12 16:02:17;;;;;;;;;;;;;;;;;;5030476;28;19978;-84
2023/02/12 16:04:43;;;;;;;;;;;;;;;;;;5035451;28;20266;-85
2023/02/12 16:07:09;;;;;;;;;;;;;;;;;;5028327;28;22534;-83
2023/02/12 16:09:35;;;;;;;;;;;;;;;;;;5035826;28;19935;-82
2023/02/12 16:12:01;;;;;;;;;;;;;;;;;;5037765;28;19939;-83
2023/02/12 16:14:32;;;;;;;;;;;9.60;99.90;;;;;;5024002;28;20048;-83
2023/02/12 16:16:58;;;;;;;;;;;;;;;;;;5023367;28;20443;-84
2023/02/12 16:19:24;;;;;;;;;;;;;;;;;;5021531;28;19925;-84
2023/02/12 16:21:50;;;;;;;;;;;;;;;;;;5017679;28;20386;-83
2023/02/12 16:24:16;;;;;;;;;;;;;;;;;;5043169;28;20278;-85
2023/02/12 16:26:42;;;;;;;;;;;;;;;;;;5027091;28;20403;-84
2023/02/12 16:29:07;;;;;;;;;;;;;;;;;;5047566;28;19954;-84
2023/02/12 16:31:33;;;;;;;;;;;;;;;;;;5043874;28;19960;-85
2023/02/12 16:34:00;;;;;;;;;;;;;;;;;;5037367;28;19936;-84
2023/02/12 16:36:26;;;;;;;;;;;;;;;;;;5036621;28;19936;-84
2023/02/12 16:38:51;;;;;;;;;;;;;;;;;;5041091;28;19921;-85
2023/02/12 16:41:18;;;;;;;;;;;;;;;;;;5038234;28;20255;-85
2023/02/12 16:43:44;;;;;;;;;;;;;;;;;;5030663;28;19968;-84
2023/02/12 16:46:10;;;;;;;;;;;;;;;;;;5014788;28;20703;-84
2023/02/12 16:48:36;;;;;;;;;;;;;;;;;;5050946;28;20309;-85
2023/02/12 16:51:05;;;;;;;;;;;;;;;;;;5028432;28;19921;-85
2023/02/12 16:53:31;;;;;;;;;;;;;;;;;;5049581;28;19921;-85
2023/02/12 16:55:57;;;;;;;;;;;;;;;;;;5027797;28;20575;-85
2023/02/12 16:58:25;;;;;;;;;;;;;;;;;;5038673;28;19931;-85
2023/02/12 17:00:51;;;;;;;;;;;;;;;;;;5036859;28;19968;-85
2023/02/12 17:03:17;;;;;;;;;;;;;;;;;;5031417;28;20061;-86
2023/02/12 17:05:44;;;;;;;;;;;;;;;;;;5068616;23;19927;-82
2023/02/12 17:08:10;;;;;;;;;;;;;;;;;;5121016;27;19987;-82
2023/02/12 17:10:35;;;;;;;;;;;;;;;;;;5119793;27;20408;-82
2023/02/12 17:13:01;;;;;;;;;;;;;;;;;;5102463;27;20416;-82
2023/02/12 17:15:27;;;;;;;;;;;;;;;;;;5098354;27;20007;-81
2023/02/12 17:17:53;;;;;;;;;;;;;;;;;;5113505;22;19935;-84
2023/02/12 17:20:19;;;;;;;;;;;;;;;;;;5074183;28;19924;-83
2023/02/12 17:22:45;;;;;;;;;;;;;;;;;;5067836;28;20252;-85
2023/02/12 17:25:11;;;;;;;;;;;;;;;;;;5068408;28;20019;-84
2023/02/12 17:27:37;;;;;;;;;;;;;;;;;;5068830;28;20010;-84
2023/02/12 17:30:05;;;;;;;;;;;;;;;;;;5053979;28;19926;-84
2023/02/12 17:32:31;;;;;;;;;;;;;;;;;;5068855;28;20003;-84
2023/02/12 17:34:56;;;;;;;;;;;;;;;;;;5050526;28;19977;-83
2023/02/12 17:37:24;;;;;;;;;;;;;;;;;;5056992;28;20064;-84
2023/02/12 17:39:50;;;;;;;;;;;;;;;;;;5052728;28;19932;-86
2023/02/12 17:42:16;;;;;;;;;;;;;;;;;;5059522;28;20294;-84
2023/02/12 17:44:42;;;;;;;;;;;;;;;;;;5045535;28;19924;-84
2023/02/12 17:47:07;;;;;;;;;;;;;;;;;;5055856;28;20042;-84
2023/02/12 17:49:34;;;;;;;;;;;;;;;;;;5074073;28;19920;-84
2023/02/12 17:52:00;;;;;;;;;;;;;;;;;;5063821;28;19919;-84
2023/02/12 17:54:26;;;;;;;;;;;;;;;;;;5064810;28;20391;-84
2023/02/12 17:56:52;;;;;;;;;;;;;;;;;;5055377;28;19920;-84
2023/02/12 17:59:18;;;;;;;;;;;;;;;;;;5077557;28;19927;-84
2023/02/12 18:01:44;;;;;;;;;;;;;;;;;;5076213;28;20004;-84
2023/02/12 18:04:10;;;;;;;;;;;;;;;;;;5058383;28;20555;-84
2023/02/12 18:06:36;;;;;;;;;;;;;;;;;;5068907;28;19935;-84
2023/02/12 18:09:02;;;;;;;;;;;;;;;;;;5049227;28;19981;-84
2023/02/12 18:11:28;;;;;;;;;;;;;;;;;;5057558;28;19920;-84
2023/02/12 18:13:54;;;;;;;;;;;;;;;;;;5057974;28;20131;-84
2023/02/12 18:16:20;;;;;;;;;;;;;;;;;;5046429;28;19920;-84
2023/02/12 18:18:46;;;;;;;;;;;;;;;;;;5065423;28;19928;-84
2023/02/12 18:21:12;;;;;;;;;;;;;;;;;;5056366;28;19920;-84
2023/02/12 18:23:38;;;;;;;;;;;;;;;;;;5058546;28;20167;-84
2023/02/12 18:26:04;;;;;;;;;;;;;;;;;;5058254;28;20012;-84
2023/02/12 18:28:30;;;;;;;;;;;;;;;;;;5065768;28;19923;-84
2023/02/12 18:30:56;;;;;;;;;;;;;;;;;;5061782;28;19920;-84
2023/02/12 18:33:22;;;;;;;;;;;;;;;;;;5073334;28;19924;-84
2023/02/12 18:35:48;;;;;;;;;;;;;;;;;;5069365;28;20189;-84